sensor_id;sensor_type;location;lat;lon;timestamp;pressure;altitude;pressure_sealevel;temperature;humidity
80382;BME280;69692;55.820;37.490;2023-05-20T00:00:36;100778.03;;;12.51;50.52
80382;BME280;69692;55.820;37.490;2023-05-20T00:03:01;100780.94;;;12.43;51.07
80382;BME280;69692;55.820;37.490;2023-05-20T00:05:27;100773.94;;;12.36;50.84
80382;BME280;69692;55.820;37.490;2023-05-20T00:07:53;100774.34;;;12.33;51.39
80382;BME280;69692;55.820;37.490;2023-05-20T00:10:18;100766.47;;;12.38;51.16
80382;BME280;69692;55.820;37.490;2023-05-20T00:12:45;100773.28;;;12.40;52.17
80382;BME280;69692;55.820;37.490;2023-05-20T00:15:11;100768.72;;;12.41;52.05
80382;BME280;69692;55.820;37.490;2023-05-20T00:17:37;100770.59;;;12.40;51.81
80382;BME280;69692;55.820;37.490;2023-05-20T00:20:03;100775.38;;;12.38;52.18
80382;BME280;69692;55.820;37.490;2023-05-20T00:22:30;100776.59;;;12.42;52.28
80382;BME280;69692;55.820;37.490;2023-05-20T00:24:56;100769.50;;;12.48;52.12
80382;BME280;69692;55.820;37.490;2023-05-20T00:27:21;100778.84;;;12.52;52.21
80382;BME280;69692;55.820;37.490;2023-05-20T00:29:47;100766.59;;;12.49;52.05
80382;BME280;69692;55.820;37.490;2023-05-20T00:32:13;100769.09;;;12.51;52.64
80382;BME280;69692;55.820;37.490;2023-05-20T00:34:39;100771.59;;;12.46;52.77
80382;BME280;69692;55.820;37.490;2023-05-20T00:37:05;100770.16;;;12.50;52.45
80382;BME280;69692;55.820;37.490;2023-05-20T00:39:30;100768.28;;;12.50;51.83
80382;BME280;69692;55.820;37.490;2023-05-20T00:41:56;100766.81;;;12.48;51.85
80382;BME280;69692;55.820;37.490;2023-05-20T00:44:25;100769.50;;;12.48;52.62
80382;BME280;69692;55.820;37.490;2023-05-20T00:46:52;100768.69;;;12.47;52.88
80382;BME280;69692;55.820;37.490;2023-05-20T00:49:18;100773.25;;;12.47;52.88
80382;BME280;69692;55.820;37.490;2023-05-20T00:51:44;100771.81;;;12.44;53.11
80382;BME280;69692;55.820;37.490;2023-05-20T00:54:11;100773.50;;;12.39;53.87
80382;BME280;69692;55.820;37.490;2023-05-20T00:56:37;100770.34;;;13.43;62.70
80382;BME280;69692;55.820;37.490;2023-05-20T00:59:03;100767.84;;;14.88;58.17
80382;BME280;69692;55.820;37.490;2023-05-20T01:01:29;100761.00;;;15.74;46.79
80382;BME280;69692;55.820;37.490;2023-05-20T01:03:55;100758.22;;;15.15;47.22
80382;BME280;69692;55.820;37.490;2023-05-20T01:06:21;100772.66;;;14.56;48.13
80382;BME280;69692;55.820;37.490;2023-05-20T01:08:46;100766.03;;;13.97;49.63
80382;BME280;69692;55.820;37.490;2023-05-20T01:11:23;100769.44;;;13.49;50.93
80382;BME280;69692;55.820;37.490;2023-05-20T01:13:54;100771.78;;;13.21;51.89
80382;BME280;69692;55.820;37.490;2023-05-20T01:16:23;100770.69;;;12.97;52.75
80382;BME280;69692;55.820;37.490;2023-05-20T01:18:50;100774.31;;;12.77;53.42
80382;BME280;69692;55.820;37.490;2023-05-20T01:21:20;100766.13;;;12.59;54.03
80382;BME280;69692;55.820;37.490;2023-05-20T01:23:47;100774.06;;;12.47;54.37
80382;BME280;69692;55.820;37.490;2023-05-20T01:26:12;100767.91;;;12.40;54.74
80382;BME280;69692;55.820;37.490;2023-05-20T01:28:40;100775.38;;;12.38;55.02
80382;BME280;69692;55.820;37.490;2023-05-20T01:31:22;100767.72;;;12.29;55.58
80382;BME280;69692;55.820;37.490;2023-05-20T01:33:51;100782.47;;;12.26;55.28
80382;BME280;69692;55.820;37.490;2023-05-20T01:36:21;100791.03;;;12.16;55.67
80382;BME280;69692;55.820;37.490;2023-05-20T01:38:48;100780.06;;;12.05;56.60
80382;BME280;69692;55.820;37.490;2023-05-20T01:41:14;100782.38;;;11.94;56.78
80382;BME280;69692;55.820;37.490;2023-05-20T01:43:42;100788.19;;;11.98;56.94
80382;BME280;69692;55.820;37.490;2023-05-20T01:46:08;100781.56;;;11.94;56.93
80382;BME280;69692;55.820;37.490;2023-05-20T01:48:34;100786.75;;;11.82;57.74
80382;BME280;69692;55.820;37.490;2023-05-20T01:51:00;100782.41;;;11.81;57.50
80382;BME280;69692;55.820;37.490;2023-05-20T01:53:26;100787.38;;;11.71;57.73
80382;BME280;69692;55.820;37.490;2023-05-20T01:55:51;100788.59;;;11.75;57.90
80382;BME280;69692;55.820;37.490;2023-05-20T01:58:17;100794.00;;;11.75;58.37
80382;BME280;69692;55.820;37.490;2023-05-20T02:00:43;100791.72;;;11.72;58.39
80382;BME280;69692;55.820;37.490;2023-05-20T02:03:09;100784.50;;;11.79;58.33
80382;BME280;69692;55.820;37.490;2023-05-20T02:05:35;100783.41;;;11.74;57.99
80382;BME280;69692;55.820;37.490;2023-05-20T02:08:03;100787.59;;;11.76;58.30
80382;BME280;69692;55.820;37.490;2023-05-20T02:10:29;100792.97;;;11.70;58.42
80382;BME280;69692;55.820;37.490;2023-05-20T02:12:55;100793.78;;;11.70;58.17
80382;BME280;69692;55.820;37.490;2023-05-20T02:15:20;100780.34;;;11.63;58.66
80382;BME280;69692;55.820;37.490;2023-05-20T02:17:46;100778.47;;;11.57;59.65
80382;BME280;69692;55.820;37.490;2023-05-20T02:20:13;100785.50;;;11.58;59.15
80382;BME280;69692;55.820;37.490;2023-05-20T02:22:38;100791.13;;;11.57;59.28
80382;BME280;69692;55.820;37.490;2023-05-20T02:25:05;100785.09;;;11.55;59.24
80382;BME280;69692;55.820;37.490;2023-05-20T02:27:31;100785.72;;;11.57;59.45
80382;BME280;69692;55.820;37.490;2023-05-20T02:29:58;100779.50;;;11.56;59.27
80382;BME280;69692;55.820;37.490;2023-05-20T02:32:24;100779.91;;;11.60;59.33
80382;BME280;69692;55.820;37.490;2023-05-20T02:34:53;100778.47;;;11.64;59.48
80382;BME280;69692;55.820;37.490;2023-05-20T02:37:19;100777.00;;;11.68;59.33
80382;BME280;69692;55.820;37.490;2023-05-20T02:39:45;100781.59;;;11.61;60.02
80382;BME280;69692;55.820;37.490;2023-05-20T02:42:13;100791.13;;;11.63;59.66
80382;BME280;69692;55.820;37.490;2023-05-20T02:44:39;100785.13;;;11.61;60.43
80382;BME280;69692;55.820;37.490;2023-05-20T02:47:05;100781.38;;;11.62;60.33
80382;BME280;69692;55.820;37.490;2023-05-20T02:49:31;100780.72;;;11.60;60.14
80382;BME280;69692;55.820;37.490;2023-05-20T02:51:57;100774.50;;;11.60;60.43
80382;BME280;69692;55.820;37.490;2023-05-20T02:54:23;100779.28;;;11.58;60.17
80382;BME280;69692;55.820;37.490;2023-05-20T02:56:49;100779.28;;;11.58;60.54
80382;BME280;69692;55.820;37.490;2023-05-20T02:59:15;100785.31;;;11.53;61.24
80382;BME280;69692;55.820;37.490;2023-05-20T03:01:41;100787.19;;;11.53;60.98
80382;BME280;69692;55.820;37.490;2023-05-20T03:04:07;100792.78;;;11.58;61.10
80382;BME280;69692;55.820;37.490;2023-05-20T03:06:33;100790.69;;;11.60;61.09
80382;BME280;69692;55.820;37.490;2023-05-20T03:08:59;100786.34;;;11.65;61.92
80382;BME280;69692;55.820;37.490;2023-05-20T03:11:24;100784.47;;;11.66;61.26
80382;BME280;69692;55.820;37.490;2023-05-20T03:13:50;100787.16;;;11.59;61.35
80382;BME280;69692;55.820;37.490;2023-05-20T03:16:16;100790.69;;;11.60;61.35
80382;BME280;69692;55.820;37.490;2023-05-20T03:18:43;100794.03;;;11.55;61.53
80382;BME280;69692;55.820;37.490;2023-05-20T03:21:11;100799.19;;;11.57;61.66
80382;BME280;69692;55.820;37.490;2023-05-20T03:23:37;100792.97;;;11.56;61.71
80382;BME280;69692;55.820;37.490;2023-05-20T03:26:03;100795.25;;;11.59;61.32
80382;BME280;69692;55.820;37.490;2023-05-20T03:28:31;100785.94;;;11.62;61.65
80382;BME280;69692;55.820;37.490;2023-05-20T03:30:57;100789.03;;;11.65;61.91
80382;BME280;69692;55.820;37.490;2023-05-20T03:33:23;100790.28;;;11.63;61.92
80382;BME280;69692;55.820;37.490;2023-05-20T03:35:51;100787.16;;;11.59;62.02
80382;BME280;69692;55.820;37.490;2023-05-20T03:38:16;100800.25;;;11.56;62.01
80382;BME280;69692;55.820;37.490;2023-05-20T03:40:42;100800.84;;;11.58;62.07
80382;BME280;69692;55.820;37.490;2023-05-20T03:43:08;100790.06;;;11.58;62.51
80382;BME280;69692;55.820;37.490;2023-05-20T03:45:34;100790.69;;;11.60;62.82
80382;BME280;69692;55.820;37.490;2023-05-20T03:48:03;100789.47;;;11.62;62.14
80382;BME280;69692;55.820;37.490;2023-05-20T03:50:31;100791.50;;;11.60;62.26
80382;BME280;69692;55.820;37.490;2023-05-20T03:52:56;100787.38;;;11.64;62.08
80382;BME280;69692;55.820;37.490;2023-05-20T03:55:23;100786.13;;;11.67;62.28
80382;BME280;69692;55.820;37.490;2023-05-20T03:57:50;100794.00;;;11.69;61.93
80382;BME280;69692;55.820;37.490;2023-05-20T04:00:16;100792.34;;;11.74;61.97
80382;BME280;69692;55.820;37.490;2023-05-20T04:02:43;100799.84;;;11.79;62.21
80382;BME280;69692;55.820;37.490;2023-05-20T04:05:11;100797.97;;;11.79;62.26
80382;BME280;69692;55.820;37.490;2023-05-20T04:07:39;100793.81;;;11.83;62.76
80382;BME280;69692;55.820;37.490;2023-05-20T04:10:07;100794.22;;;11.93;62.46
80382;BME280;69692;55.820;37.490;2023-05-20T04:12:32;100786.09;;;12.00;62.01
80382;BME280;69692;55.820;37.490;2023-05-20T04:15:01;100795.84;;;12.08;62.40
80382;BME280;69692;55.820;37.490;2023-05-20T04:17:31;100795.84;;;12.08;61.59
80382;BME280;69692;55.820;37.490;2023-05-20T04:19:57;100792.72;;;12.04;62.65
80382;BME280;69692;55.820;37.490;2023-05-20T04:22:26;100795.88;;;11.94;61.97
80382;BME280;69692;55.820;37.490;2023-05-20T04:24:52;100790.47;;;11.94;62.81
80382;BME280;69692;55.820;37.490;2023-05-20T04:27:17;100792.94;;;12.03;62.01
80382;BME280;69692;55.820;37.490;2023-05-20T04:29:45;100794.19;;;12.07;61.95
80382;BME280;69692;55.820;37.490;2023-05-20T04:32:14;100796.66;;;12.08;62.01
80382;BME280;69692;55.820;37.490;2023-05-20T04:34:40;100795.41;;;12.11;61.93
80382;BME280;69692;55.820;37.490;2023-05-20T04:37:05;100806.84;;;12.06;62.70
80382;BME280;69692;55.820;37.490;2023-05-20T04:39:33;100797.25;;;12.17;62.33
80382;BME280;69692;55.820;37.490;2023-05-20T04:42:02;100786.00;;;12.20;61.84
80382;BME280;69692;55.820;37.490;2023-05-20T04:44:28;100790.59;;;12.19;62.07
80382;BME280;69692;55.820;37.490;2023-05-20T04:46:55;100786.00;;;12.27;62.03
80382;BME280;69692;55.820;37.490;2023-05-20T04:49:23;100778.91;;;12.39;61.68
80382;BME280;69692;55.820;37.490;2023-05-20T04:51:53;100787.16;;;12.50;60.99
80382;BME280;69692;55.820;37.490;2023-05-20T04:54:20;100796.03;;;12.58;61.14
80382;BME280;69692;55.820;37.490;2023-05-20T04:56:46;100793.94;;;12.60;60.90
80382;BME280;69692;55.820;37.490;2023-05-20T04:59:12;100793.75;;;12.61;60.63
80382;BME280;69692;55.820;37.490;2023-05-20T05:01:39;100790.66;;;12.58;61.49
80382;BME280;69692;55.820;37.490;2023-05-20T05:04:05;100785.47;;;12.56;61.06
80382;BME280;69692;55.820;37.490;2023-05-20T05:06:31;100790.28;;;12.47;61.56
80382;BME280;69692;55.820;37.490;2023-05-20T05:08:57;100793.84;;;12.35;61.30
80382;BME280;69692;55.820;37.490;2023-05-20T05:11:24;100792.00;;;12.35;61.18
80382;BME280;69692;55.820;37.490;2023-05-20T05:13:51;100787.19;;;12.44;61.03
80382;BME280;69692;55.820;37.490;2023-05-20T05:16:18;100790.69;;;12.51;61.18
80382;BME280;69692;55.820;37.490;2023-05-20T05:18:43;100782.97;;;12.54;61.52
80382;BME280;69692;55.820;37.490;2023-05-20T05:21:09;100789.59;;;12.59;60.51
80382;BME280;69692;55.820;37.490;2023-05-20T05:23:35;100782.91;;;12.68;61.02
80382;BME280;69692;55.820;37.490;2023-05-20T05:26:01;100785.19;;;12.71;60.41
80382;BME280;69692;55.820;37.490;2023-05-20T05:28:27;100781.19;;;12.80;60.64
80382;BME280;69692;55.820;37.490;2023-05-20T05:30:53;100773.50;;;12.77;60.83
80382;BME280;69692;55.820;37.490;2023-05-20T05:33:21;100774.75;;;12.74;60.67
80382;BME280;69692;55.820;37.490;2023-05-20T05:35:47;100779.94;;;12.76;61.37
80382;BME280;69692;55.820;37.490;2023-05-20T05:38:13;100782.44;;;12.77;60.50
80382;BME280;69692;55.820;37.490;2023-05-20T05:40:39;100779.47;;;12.86;60.24
80382;BME280;69692;55.820;37.490;2023-05-20T05:43:06;100772.38;;;12.91;59.93
80382;BME280;69692;55.820;37.490;2023-05-20T05:45:32;100776.50;;;12.94;59.93
80382;BME280;69692;55.820;37.490;2023-05-20T05:47:58;100782.72;;;13.01;60.09
80382;BME280;69692;55.820;37.490;2023-05-20T05:50:24;100777.88;;;13.09;59.68
80382;BME280;69692;55.820;37.490;2023-05-20T05:52:51;100780.13;;;13.12;60.06
80382;BME280;69692;55.820;37.490;2023-05-20T05:55:17;100779.88;;;13.21;59.28
80382;BME280;69692;55.820;37.490;2023-05-20T05:57:43;100780.06;;;13.26;59.24
80382;BME280;69692;55.820;37.490;2023-05-20T06:00:13;100780.66;;;13.28;58.38
80382;BME280;69692;55.820;37.490;2023-05-20T06:02:45;100771.06;;;13.32;58.95
80382;BME280;69692;55.820;37.490;2023-05-20T06:05:17;100781.22;;;13.36;58.45
80382;BME280;69692;55.820;37.490;2023-05-20T06:07:44;100786.13;;;13.46;58.86
80382;BME280;69692;55.820;37.490;2023-05-20T06:10:10;100779.66;;;13.47;59.05
80382;BME280;69692;55.820;37.490;2023-05-20T06:12:36;100786.28;;;13.51;59.42
80382;BME280;69692;55.820;37.490;2023-05-20T06:15:05;100780.31;;;13.67;59.25
80382;BME280;69692;55.820;37.490;2023-05-20T06:17:31;100776.28;;;13.77;57.74
80382;BME280;69692;55.820;37.490;2023-05-20T06:19:57;100779.53;;;13.85;58.45
80382;BME280;69692;55.820;37.490;2023-05-20T06:22:25;100778.97;;;13.95;57.55
80382;BME280;69692;55.820;37.490;2023-05-20T06:24:52;100784.25;;;14.08;57.68
80382;BME280;69692;55.820;37.490;2023-05-20T06:27:18;100779.16;;;14.18;56.68
80382;BME280;69692;55.820;37.490;2023-05-20T06:29:44;100778.22;;;14.24;56.60
80382;BME280;69692;55.820;37.490;2023-05-20T06:32:11;100780.34;;;14.22;56.51
80382;BME280;69692;55.820;37.490;2023-05-20T06:34:38;100785.75;;;14.22;56.19
80382;BME280;69692;55.820;37.490;2023-05-20T06:37:04;100783.78;;;14.11;56.50
80382;BME280;69692;55.820;37.490;2023-05-20T06:39:30;100777.56;;;14.11;56.99
80382;BME280;69692;55.820;37.490;2023-05-20T06:41:56;100777.94;;;14.14;56.45
80382;BME280;69692;55.820;37.490;2023-05-20T06:44:27;100774.75;;;14.36;56.63
80382;BME280;69692;55.820;37.490;2023-05-20T06:47:19;100767.94;;;14.51;55.04
80382;BME280;69692;55.820;37.490;2023-05-20T06:49:47;100768.28;;;14.55;54.50
80382;BME280;69692;55.820;37.490;2023-05-20T06:52:15;100779.13;;;14.55;54.29
80382;BME280;69692;55.820;37.490;2023-05-20T06:54:41;100778.16;;;14.31;53.89
80382;BME280;69692;55.820;37.490;2023-05-20T06:57:09;100775.81;;;14.35;55.22
80382;BME280;69692;55.820;37.490;2023-05-20T06:59:36;100770.50;;;14.46;54.72
80382;BME280;69692;55.820;37.490;2023-05-20T07:02:03;100771.75;;;14.62;54.18
80382;BME280;69692;55.820;37.490;2023-05-20T07:04:30;100779.31;;;14.72;52.83
80382;BME280;69692;55.820;37.490;2023-05-20T07:06:56;100751.66;;;14.81;52.38
80382;BME280;69692;55.820;37.490;2023-05-20T07:09:23;100767.13;;;14.93;51.81
80382;BME280;69692;55.820;37.490;2023-05-20T07:11:49;100760.00;;;15.10;50.96
80382;BME280;69692;55.820;37.490;2023-05-20T07:14:15;100756.94;;;15.18;52.01
80382;BME280;69692;55.820;37.490;2023-05-20T07:16:41;100760.84;;;15.34;51.17
80382;BME280;69692;55.820;37.490;2023-05-20T07:19:08;100772.06;;;15.37;48.75
80382;BME280;69692;55.820;37.490;2023-05-20T07:21:33;100765.22;;;15.35;49.11
80382;BME280;69692;55.820;37.490;2023-05-20T07:24:25;100777.56;;;15.31;47.50
80382;BME280;69692;55.820;37.490;2023-05-20T07:26:51;100768.63;;;15.30;47.09
80382;BME280;69692;55.820;37.490;2023-05-20T07:29:18;100769.72;;;15.52;46.66
80382;BME280;69692;55.820;37.490;2023-05-20T07:31:44;100754.63;;;15.68;45.62
80382;BME280;69692;55.820;37.490;2023-05-20T07:34:09;100759.69;;;15.88;45.16
80382;BME280;69692;55.820;37.490;2023-05-20T07:36:35;100759.06;;;16.09;45.11
80382;BME280;69692;55.820;37.490;2023-05-20T07:39:04;100756.19;;;16.28;45.10
80382;BME280;69692;55.820;37.490;2023-05-20T07:41:33;100755.72;;;16.19;42.91
80382;BME280;69692;55.820;37.490;2023-05-20T07:44:03;100763.19;;;16.24;43.07
80382;BME280;69692;55.820;37.490;2023-05-20T07:46:30;100753.78;;;16.43;42.30
80382;BME280;69692;55.820;37.490;2023-05-20T07:48:56;100761.53;;;16.23;42.88
80382;BME280;69692;55.820;37.490;2023-05-20T07:51:22;100769.13;;;15.97;43.06
80382;BME280;69692;55.820;37.490;2023-05-20T07:53:48;100753.31;;;15.83;44.30
80382;BME280;69692;55.820;37.490;2023-05-20T07:56:15;100746.59;;;15.62;44.47
80382;BME280;69692;55.820;37.490;2023-05-20T07:58:41;100752.59;;;15.87;44.21
80382;BME280;69692;55.820;37.490;2023-05-20T08:01:08;100756.72;;;16.01;43.88
80382;BME280;69692;55.820;37.490;2023-05-20T08:03:35;100746.91;;;16.00;43.57
80382;BME280;69692;55.820;37.490;2023-05-20T08:06:06;100745.59;;;16.15;43.56
80382;BME280;69692;55.820;37.490;2023-05-20T08:08:32;100753.06;;;16.36;43.30
80382;BME280;69692;55.820;37.490;2023-05-20T08:11:06;100751.06;;;16.43;42.52
80382;BME280;69692;55.820;37.490;2023-05-20T08:13:32;100751.69;;;16.22;43.41
80382;BME280;69692;55.820;37.490;2023-05-20T08:16:00;100745.31;;;16.28;44.44
80382;BME280;69692;55.820;37.490;2023-05-20T08:18:26;100745.94;;;16.18;44.07
80382;BME280;69692;55.820;37.490;2023-05-20T08:20:54;100745.03;;;16.01;43.89
80382;BME280;69692;55.820;37.490;2023-05-20T08:23:20;100750.13;;;15.97;44.05
80382;BME280;69692;55.820;37.490;2023-05-20T08:25:46;100752.59;;;15.87;43.80
80382;BME280;69692;55.820;37.490;2023-05-20T08:28:14;100749.31;;;15.73;44.12
80382;BME280;69692;55.820;37.490;2023-05-20T08:30:40;100761.13;;;15.79;44.75
80382;BME280;69692;55.820;37.490;2023-05-20T08:33:06;100747.09;;;15.82;44.42
80382;BME280;69692;55.820;37.490;2023-05-20T08:35:32;100743.41;;;15.88;44.69
80382;BME280;69692;55.820;37.490;2023-05-20T08:37:58;100750.34;;;16.07;44.85
80382;BME280;69692;55.820;37.490;2023-05-20T08:40:25;100752.31;;;16.24;44.12
80382;BME280;69692;55.820;37.490;2023-05-20T08:42:51;100751.09;;;16.31;43.35
80382;BME280;69692;55.820;37.490;2023-05-20T08:45:20;100749.31;;;16.37;42.48
80382;BME280;69692;55.820;37.490;2023-05-20T08:47:48;100750.34;;;16.36;42.97
80382;BME280;69692;55.820;37.490;2023-05-20T08:50:15;100747.38;;;16.78;42.20
80382;BME280;69692;55.820;37.490;2023-05-20T08:52:43;100744.72;;;17.11;41.74
80382;BME280;69692;55.820;37.490;2023-05-20T08:55:32;100748.16;;;17.23;41.49
80382;BME280;69692;55.820;37.490;2023-05-20T08:58:02;100748.50;;;17.10;42.58
80382;BME280;69692;55.820;37.490;2023-05-20T09:00:27;100746.69;;;16.99;42.95
80382;BME280;69692;55.820;37.490;2023-05-20T09:02:55;100748.91;;;16.85;42.65
80382;BME280;69692;55.820;37.490;2023-05-20T09:05:21;100746.59;;;16.94;43.35
80382;BME280;69692;55.820;37.490;2023-05-20T09:07:47;100751.94;;;16.60;43.12
80382;BME280;69692;55.820;37.490;2023-05-20T09:10:13;100749.50;;;16.47;44.47
80382;BME280;69692;55.820;37.490;2023-05-20T09:12:39;100742.41;;;16.46;44.45
80382;BME280;69692;55.820;37.490;2023-05-20T09:15:05;100755.09;;;16.40;44.90
80382;BME280;69692;55.820;37.490;2023-05-20T09:17:34;100750.84;;;16.33;45.07
80382;BME280;69692;55.820;37.490;2023-05-20T09:20:00;100752.94;;;16.43;45.02
80382;BME280;69692;55.820;37.490;2023-05-20T09:22:27;100746.41;;;16.55;44.73
80382;BME280;69692;55.820;37.490;2023-05-20T09:24:54;100749.44;;;16.71;44.25
80382;BME280;69692;55.820;37.490;2023-05-20T09:27:20;100747.00;;;16.86;43.63
80382;BME280;69692;55.820;37.490;2023-05-20T09:29:50;100753.22;;;16.69;43.88
80382;BME280;69692;55.820;37.490;2023-05-20T09:32:16;100758.22;;;16.49;44.57
80382;BME280;69692;55.820;37.490;2023-05-20T09:34:45;100758.41;;;16.31;44.94
80382;BME280;69692;55.820;37.490;2023-05-20T09:37:13;100754.06;;;16.18;45.58
80382;BME280;69692;55.820;37.490;2023-05-20T09:39:48;100762.38;;;16.12;46.23
80382;BME280;69692;55.820;37.490;2023-05-20T09:42:21;100761.06;;;16.14;45.89
80382;BME280;69692;55.820;37.490;2023-05-20T09:44:52;100758.59;;;16.01;45.39
80382;BME280;69692;55.820;37.490;2023-05-20T09:47:19;100769.03;;;15.92;45.65
80382;BME280;69692;55.820;37.490;2023-05-20T09:49:45;100767.38;;;15.79;46.32
80382;BME280;69692;55.820;37.490;2023-05-20T09:52:17;100764.66;;;15.79;47.44
80382;BME280;69692;55.820;37.490;2023-05-20T09:54:44;100776.94;;;15.82;47.14
80382;BME280;69692;55.820;37.490;2023-05-20T09:57:11;100765.34;;;15.75;47.07
80382;BME280;69692;55.820;37.490;2023-05-20T09:59:37;100762.88;;;15.85;46.87
80382;BME280;69692;55.820;37.490;2023-05-20T10:02:04;100759.19;;;15.91;46.81
80382;BME280;69692;55.820;37.490;2023-05-20T10:04:33;100768.53;;;15.95;45.78
80382;BME280;69692;55.820;37.490;2023-05-20T10:12:30;100772.09;;;15.61;45.62
80382;BME280;69692;55.820;37.490;2023-05-20T10:15:22;100773.59;;;15.57;45.33
80382;BME280;69692;55.820;37.490;2023-05-20T10:20:49;100773.28;;;15.65;45.03
80382;BME280;69692;55.820;37.490;2023-05-20T10:23:33;100771.75;;;15.69;45.22
80382;BME280;69692;55.820;37.490;2023-05-20T10:26:05;100779.06;;;15.68;45.69
80382;BME280;69692;55.820;37.490;2023-05-20T10:28:33;100778.56;;;15.71;45.55
80382;BME280;69692;55.820;37.490;2023-05-20T10:31:01;100774.69;;;15.79;45.72
80382;BME280;69692;55.820;37.490;2023-05-20T10:33:27;100781.53;;;15.70;46.19
80382;BME280;69692;55.820;37.490;2023-05-20T10:35:57;100772.91;;;15.61;46.21
80382;BME280;69692;55.820;37.490;2023-05-20T10:38:23;100777.50;;;15.61;46.50
80382;BME280;69692;55.820;37.490;2023-05-20T10:40:49;100777.88;;;15.64;47.32
80382;BME280;69692;55.820;37.490;2023-05-20T10:43:16;100774.56;;;15.74;46.41
80382;BME280;69692;55.820;37.490;2023-05-20T10:45:54;100778.00;;;15.81;46.18
80382;BME280;69692;55.820;37.490;2023-05-20T10:48:25;100777.75;;;15.83;47.11
80382;BME280;69692;55.820;37.490;2023-05-20T10:50:56;100774.06;;;15.89;46.23
80382;BME280;69692;55.820;37.490;2023-05-20T10:53:23;100771.38;;;15.89;46.63
80382;BME280;69692;55.820;37.490;2023-05-20T10:55:51;100772.41;;;15.99;46.55
80382;BME280;69692;55.820;37.490;2023-05-20T10:58:18;100781.03;;;16.08;46.05
80382;BME280;69692;55.820;37.490;2023-05-20T11:00:47;100774.16;;;16.05;44.75
80382;BME280;69692;55.820;37.490;2023-05-20T11:03:15;100779.50;;;15.89;45.30
80382;BME280;69692;55.820;37.490;2023-05-20T11:05:41;100775.38;;;15.86;46.71
80382;BME280;69692;55.820;37.490;2023-05-20T11:08:08;100766.88;;;15.94;46.23
80382;BME280;69692;55.820;37.490;2023-05-20T11:10:35;100774.06;;;15.89;46.09
80382;BME280;69692;55.820;37.490;2023-05-20T11:13:02;100768.31;;;15.85;46.35
80382;BME280;69692;55.820;37.490;2023-05-20T11:15:29;100770.44;;;15.83;47.14
80382;BME280;69692;55.820;37.490;2023-05-20T11:17:57;100773.84;;;15.90;45.57
80382;BME280;69692;55.820;37.490;2023-05-20T11:20:25;100788.03;;;15.80;46.10
80382;BME280;69692;55.820;37.490;2023-05-20T11:22:51;100787.44;;;15.67;46.37
80382;BME280;69692;55.820;37.490;2023-05-20T11:25:17;100788.19;;;15.44;46.55
80382;BME280;69692;55.820;37.490;2023-05-20T11:27:44;100785.94;;;15.29;47.28
80382;BME280;69692;55.820;37.490;2023-05-20T11:30:13;100798.66;;;15.17;46.21
80382;BME280;69692;55.820;37.490;2023-05-20T11:32:43;100795.94;;;15.05;46.47
80382;BME280;69692;55.820;37.490;2023-05-20T11:35:21;100808.50;;;15.00;45.56
80382;BME280;69692;55.820;37.490;2023-05-20T11:38:01;100800.94;;;14.90;45.55
80382;BME280;69692;55.820;37.490;2023-05-20T11:40:28;100790.88;;;14.79;46.01
80382;BME280;69692;55.820;37.490;2023-05-20T11:42:56;100796.31;;;14.79;46.04
80382;BME280;69692;55.820;37.490;2023-05-20T11:45:22;100796.38;;;14.72;45.82
80382;BME280;69692;55.820;37.490;2023-05-20T11:48:03;100789.53;;;14.70;45.79
80382;BME280;69692;55.820;37.490;2023-05-20T11:50:34;100782.63;;;14.74;45.26
80382;BME280;69692;55.820;37.490;2023-05-20T11:53:04;100783.34;;;14.81;45.59
80382;BME280;69692;55.820;37.490;2023-05-20T11:55:34;100788.66;;;14.87;45.83
80382;BME280;69692;55.820;37.490;2023-05-20T11:58:08;100781.50;;;14.93;45.92
80382;BME280;69692;55.820;37.490;2023-05-20T12:00:34;100777.03;;;14.99;45.11
80382;BME280;69692;55.820;37.490;2023-05-20T12:03:00;100785.69;;;15.07;45.04
80382;BME280;69692;55.820;37.490;2023-05-20T12:05:26;100773.66;;;15.15;44.14
80382;BME280;69692;55.820;37.490;2023-05-20T12:07:51;100769.56;;;15.24;44.31
80382;BME280;69692;55.820;37.490;2023-05-20T12:10:17;100780.53;;;15.29;43.70
80382;BME280;69692;55.820;37.490;2023-05-20T12:12:43;100772.28;;;15.24;42.56
80382;BME280;69692;55.820;37.490;2023-05-20T12:15:10;100777.09;;;15.22;42.55
80382;BME280;69692;55.820;37.490;2023-05-20T12:17:52;100778.25;;;15.14;43.58
80382;BME280;69692;55.820;37.490;2023-05-20T12:20:20;100781.13;;;15.19;44.00
80382;BME280;69692;55.820;37.490;2023-05-20T12:22:46;100783.16;;;14.94;44.39
80382;BME280;69692;55.820;37.490;2023-05-20T12:25:14;100794.00;;;14.94;44.76
80382;BME280;69692;55.820;37.490;2023-05-20T12:27:41;100786.09;;;14.93;46.05
80382;BME280;69692;55.820;37.490;2023-05-20T12:30:08;100786.09;;;14.93;45.19
80382;BME280;69692;55.820;37.490;2023-05-20T12:32:37;100782.34;;;14.94;45.85
80382;BME280;69692;55.820;37.490;2023-05-20T12:35:03;100781.31;;;15.06;45.02
80382;BME280;69692;55.820;37.490;2023-05-20T12:37:29;100773.66;;;15.15;45.76
80382;BME280;69692;55.820;37.490;2023-05-20T12:39:55;100779.81;;;15.22;44.94
80382;BME280;69692;55.820;37.490;2023-05-20T12:42:21;100782.66;;;15.27;45.49
80382;BME280;69692;55.820;37.490;2023-05-20T12:44:47;100770.88;;;15.33;45.58
80382;BME280;69692;55.820;37.490;2023-05-20T12:47:12;100780.03;;;15.32;45.61
80382;BME280;69692;55.820;37.490;2023-05-20T12:49:38;100782.75;;;15.32;47.18